createdAt,value
2019-02-23T00:00:23.501Z,5.83
2019-02-23T00:01:23.502Z,5.86
2019-02-23T00:02:23.517Z,5.87
2019-02-23T00:03:23.532Z,5.89
2019-02-23T00:04:23.546Z,5.84
2019-02-23T00:05:23.563Z,5.82
2019-02-23T00:06:29.885Z,5.79
2019-02-23T00:07:23.590Z,5.79
2019-02-23T00:08:23.604Z,5.83
2019-02-23T00:09:23.621Z,5.80
2019-02-23T00:10:23.634Z,5.80
2019-02-23T00:11:23.658Z,5.75
2019-02-23T00:12:23.664Z,5.66
2019-02-23T00:13:23.681Z,5.65
2019-02-23T00:14:23.696Z,5.68
2019-02-23T00:15:23.716Z,5.75
2019-02-23T00:16:23.725Z,5.69
2019-02-23T00:17:23.738Z,5.68
2019-02-23T00:18:23.755Z,5.79
2019-02-23T00:19:25.047Z,5.66
2019-02-23T00:20:23.790Z,5.65
2019-02-23T00:21:23.800Z,5.72
2019-02-23T00:22:23.812Z,5.76
2019-02-23T00:23:23.829Z,5.68
2019-02-23T00:24:23.840Z,5.65
2019-02-23T00:25:23.858Z,5.61
2019-02-23T00:26:23.873Z,5.59
2019-02-23T00:27:23.891Z,5.61
2019-02-23T00:28:23.903Z,5.53
2019-02-23T00:29:23.922Z,5.53
2019-02-23T00:30:23.936Z,5.53
2019-02-23T00:31:23.954Z,5.57
2019-02-23T00:32:23.960Z,5.61
2019-02-23T00:33:23.977Z,5.64
2019-02-23T00:34:23.990Z,5.66
2019-02-23T00:35:24.005Z,5.65
2019-02-23T00:36:24.021Z,5.66
2019-02-23T00:37:24.037Z,5.57
2019-02-23T00:38:24.049Z,5.64
2019-02-23T00:39:24.070Z,5.65
2019-02-23T00:40:24.080Z,5.51
2019-02-23T00:41:24.100Z,5.56
2019-02-23T00:42:24.108Z,5.54
2019-02-23T00:43:24.122Z,5.57
2019-02-23T00:44:24.148Z,5.56
2019-02-23T00:45:24.155Z,5.50
2019-02-23T00:46:24.171Z,5.51
2019-02-23T00:47:24.185Z,5.56
2019-02-23T00:48:24.198Z,5.56
2019-02-23T00:49:35.520Z,5.56
2019-02-23T00:50:24.228Z,5.51
2019-02-23T00:51:24.245Z,5.50
2019-02-23T00:52:24.256Z,5.47
2019-02-23T00:53:24.272Z,5.46
2019-02-23T00:54:24.285Z,5.46
2019-02-23T00:55:24.299Z,5.46
2019-02-23T00:56:24.312Z,5.46
2019-02-23T00:57:24.328Z,5.43
2019-02-23T00:58:24.346Z,5.48
2019-02-23T00:59:24.359Z,5.43
2019-02-23T01:00:24.378Z,5.46
2019-02-23T01:01:24.389Z,5.47
2019-02-23T01:02:24.405Z,5.53
2019-02-23T01:03:24.420Z,5.46
2019-02-23T01:04:24.443Z,5.46
2019-02-23T01:05:24.448Z,5.46
2019-02-23T01:06:24.470Z,5.50
2019-02-23T01:07:24.475Z,5.50
2019-02-23T01:08:24.493Z,5.47
2019-02-23T01:09:24.507Z,5.38
2019-02-23T01:10:24.522Z,5.48
2019-02-23T01:11:24.535Z,5.43
2019-02-23T01:12:24.551Z,5.47
2019-02-23T01:13:24.572Z,5.56
2019-02-23T01:14:24.580Z,5.41
2019-02-23T01:15:24.593Z,5.51
2019-02-23T01:16:24.607Z,5.41
2019-02-23T01:17:24.623Z,5.33
2019-02-23T01:18:24.637Z,5.44
2019-02-23T01:19:24.658Z,5.47
2019-02-23T01:20:24.667Z,5.35
2019-02-23T01:21:24.687Z,5.41
2019-02-23T01:22:24.698Z,5.38
2019-02-23T01:23:24.713Z,5.44
2019-02-23T01:24:24.725Z,5.47
2019-02-23T01:25:24.748Z,5.38
2019-02-23T01:26:24.757Z,5.35
2019-02-23T01:27:24.771Z,5.41
2019-02-23T01:28:24.785Z,5.41
2019-02-23T01:29:24.800Z,5.38
2019-02-23T01:30:24.812Z,5.44
2019-02-23T01:31:24.832Z,5.36
2019-02-23T01:32:24.846Z,5.30
2019-02-23T01:33:24.865Z,5.32
2019-02-23T01:34:24.871Z,5.26
2019-02-23T01:35:24.888Z,5.41
2019-02-23T01:36:24.900Z,5.41
2019-02-23T01:37:24.917Z,5.36
2019-02-23T01:38:24.932Z,5.30
2019-02-23T01:39:24.947Z,5.36
2019-02-23T01:40:24.961Z,5.35
2019-02-23T01:41:24.973Z,5.28
2019-02-23T01:42:24.992Z,5.35
2019-02-23T01:43:25.005Z,5.38
2019-02-23T01:44:25.024Z,5.39
2019-02-23T01:45:25.034Z,5.28
2019-02-23T01:46:25.045Z,5.33
2019-02-23T01:47:25.066Z,5.25
2019-02-23T01:48:25.078Z,5.35
2019-02-23T01:49:25.092Z,5.18
2019-02-23T01:50:25.105Z,5.30
2019-02-23T01:51:25.118Z,5.32
2019-02-23T01:52:25.136Z,5.32
2019-02-23T01:53:25.148Z,5.28
2019-02-23T01:54:25.163Z,5.35
2019-02-23T01:55:25.182Z,5.28
2019-02-23T01:56:25.194Z,5.23
2019-02-23T01:57:25.209Z,5.25
2019-02-23T01:58:25.221Z,5.26
2019-02-23T01:59:25.237Z,5.18
2019-02-23T02:00:25.250Z,5.36
2019-02-23T02:01:25.268Z,5.36
2019-02-23T02:02:25.282Z,5.21
2019-02-23T02:03:25.298Z,5.30
2019-02-23T02:04:25.313Z,5.33
2019-02-23T02:05:25.332Z,5.15
2019-02-23T02:06:25.341Z,5.23
2019-02-23T02:07:25.352Z,5.20
2019-02-23T02:08:25.369Z,5.29
2019-02-23T02:09:25.389Z,5.20
2019-02-23T02:10:25.399Z,5.29
2019-02-23T02:11:25.420Z,5.21
2019-02-23T02:12:25.427Z,5.20
2019-02-23T02:13:25.442Z,5.18
2019-02-23T02:14:25.461Z,5.18
2019-02-23T02:15:25.470Z,5.23
2019-02-23T02:16:25.485Z,5.20
2019-02-23T02:17:25.507Z,5.18
2019-02-23T02:18:25.525Z,5.12
2019-02-23T02:19:25.530Z,5.15
2019-02-23T02:20:25.542Z,5.18
2019-02-23T02:21:25.558Z,5.18
2019-02-23T02:22:25.571Z,5.10
2019-02-23T02:23:25.590Z,5.18
2019-02-23T02:24:25.602Z,5.20
2019-02-23T02:25:25.617Z,5.21
2019-02-23T02:26:25.633Z,5.23
2019-02-23T02:27:25.651Z,5.18
2019-02-23T02:28:25.661Z,5.21
2019-02-23T02:29:25.676Z,5.17
2019-02-23T02:30:25.697Z,5.11
2019-02-23T02:31:25.703Z,5.07
2019-02-23T02:32:25.719Z,5.17
2019-02-23T02:33:25.734Z,5.14
2019-02-23T02:34:25.752Z,5.14
2019-02-23T02:35:25.774Z,5.15
2019-02-23T02:36:25.779Z,5.12
2019-02-23T02:37:25.790Z,5.14
2019-02-23T02:38:25.807Z,5.15
2019-02-23T02:39:25.823Z,5.12
2019-02-23T02:40:25.835Z,5.05
2019-02-23T02:41:25.851Z,5.08
2019-02-23T02:42:25.863Z,5.11
2019-02-23T02:43:25.879Z,5.08
2019-02-23T02:44:25.895Z,5.02
2019-02-23T02:45:25.916Z,5.00
2019-02-23T02:46:25.925Z,5.07
2019-02-23T02:47:25.939Z,5.11
2019-02-23T02:48:25.954Z,5.08
2019-02-23T02:49:25.969Z,5.14
2019-02-23T02:50:25.986Z,5.07
2019-02-23T02:51:25.998Z,5.08
2019-02-23T02:52:26.012Z,5.12
2019-02-23T02:53:26.023Z,5.07
2019-02-23T02:54:26.043Z,5.05
2019-02-23T02:55:26.054Z,5.10
2019-02-23T02:56:26.073Z,5.05
2019-02-23T02:57:26.082Z,5.05
2019-02-23T02:58:26.099Z,5.05
2019-02-23T02:59:26.114Z,5.05
2019-02-23T03:00:26.126Z,5.02
2019-02-23T03:01:26.142Z,4.99
2019-02-23T03:02:26.164Z,4.99
2019-02-23T03:03:26.172Z,4.93
2019-02-23T03:04:26.194Z,4.93
2019-02-23T03:05:26.208Z,4.93
2019-02-23T03:06:26.213Z,4.97
2019-02-23T03:07:26.228Z,4.92
2019-02-23T03:08:26.242Z,4.99
2019-02-23T03:09:26.259Z,4.93
2019-02-23T03:10:26.275Z,4.90
2019-02-23T03:11:26.287Z,5.04
2019-02-23T03:12:26.302Z,4.94
2019-02-23T03:13:26.316Z,4.90
2019-02-23T03:14:26.338Z,5.05
2019-02-23T03:15:26.344Z,5.00
2019-02-23T03:16:26.367Z,5.04
2019-02-23T03:17:26.377Z,4.99
2019-02-23T03:18:26.395Z,5.02
2019-02-23T03:19:26.405Z,4.96
2019-02-23T03:20:36.203Z,5.04
2019-02-23T03:21:26.438Z,5.07
2019-02-23T03:22:26.448Z,4.99
2019-02-23T03:23:26.462Z,4.97
2019-02-23T03:24:26.487Z,4.99
2019-02-23T03:25:26.495Z,5.02
2019-02-23T03:26:26.507Z,5.00
2019-02-23T03:27:26.528Z,4.97
2019-02-23T03:28:26.535Z,4.94
2019-02-23T03:29:26.548Z,4.92
2019-02-23T03:30:26.572Z,4.97
2019-02-23T03:31:26.591Z,4.90
2019-02-23T03:32:26.591Z,4.94
2019-02-23T03:33:26.607Z,4.82
2019-02-23T03:34:26.622Z,4.84
2019-02-23T03:35:26.636Z,4.89
2019-02-23T03:36:26.648Z,4.92
2019-02-23T03:37:26.715Z,4.92
2019-02-23T03:38:26.680Z,4.87
2019-02-23T03:39:26.693Z,4.84
2019-02-23T03:40:26.708Z,4.84
2019-02-23T03:41:26.729Z,4.80
2019-02-23T03:42:26.739Z,4.87
2019-02-23T03:43:26.752Z,4.89
2019-02-23T03:44:26.813Z,4.82
2019-02-23T03:45:26.787Z,4.86
2019-02-23T03:46:26.796Z,4.87
2019-02-23T03:47:26.810Z,4.78
2019-02-23T03:48:26.823Z,4.77
2019-02-23T03:49:26.839Z,4.82
2019-02-23T03:50:26.855Z,4.78
2019-02-23T03:51:26.869Z,4.96
2019-02-23T03:52:26.882Z,4.80
2019-02-23T03:53:26.897Z,4.80
2019-02-23T03:54:26.915Z,4.82
2019-02-23T03:55:26.924Z,4.78
2019-02-23T03:56:26.939Z,4.82
2019-02-23T03:57:26.960Z,4.70
2019-02-23T03:58:26.967Z,4.86
2019-02-23T03:59:26.984Z,4.78
2019-02-23T04:00:26.994Z,4.74
2019-02-23T04:01:27.010Z,4.73
2019-02-23T04:02:27.033Z,4.87
2019-02-23T04:03:27.057Z,4.78
2019-02-23T04:04:27.056Z,4.77
2019-02-23T04:05:27.072Z,4.77
2019-02-23T04:06:27.083Z,4.60
2019-02-23T04:07:27.101Z,4.66
2019-02-23T04:08:27.119Z,4.66
2019-02-23T04:09:27.125Z,4.68
2019-02-23T04:10:27.142Z,4.62
2019-02-23T04:11:27.160Z,4.73
2019-02-23T04:12:27.169Z,4.71
2019-02-23T04:13:27.184Z,4.71
2019-02-23T04:14:27.202Z,4.67
2019-02-23T04:15:27.211Z,4.63
2019-02-23T04:16:27.228Z,4.63
2019-02-23T04:17:27.240Z,4.56
2019-02-23T04:18:27.259Z,4.70
2019-02-23T04:19:27.271Z,4.66
2019-02-23T04:20:27.289Z,4.66
2019-02-23T04:21:27.297Z,4.55
2019-02-23T04:22:27.313Z,4.60
2019-02-23T04:23:27.324Z,4.63
2019-02-23T04:24:27.341Z,4.53
2019-02-23T04:25:27.352Z,4.53
2019-02-23T04:26:27.367Z,4.53
2019-02-23T04:27:27.385Z,4.60
2019-02-23T04:28:27.395Z,4.66
2019-02-23T04:29:27.417Z,4.55
2019-02-23T04:30:27.428Z,4.60
2019-02-23T04:31:27.449Z,4.49
2019-02-23T04:32:27.457Z,4.49
2019-02-23T04:33:27.468Z,4.49
2019-02-23T04:34:27.483Z,4.50
2019-02-23T04:35:27.497Z,4.44
2019-02-23T04:36:27.513Z,4.48
2019-02-23T04:37:27.608Z,4.45
2019-02-23T04:38:27.541Z,4.50
2019-02-23T04:39:27.557Z,4.37
2019-02-23T04:40:27.567Z,4.49
2019-02-23T04:41:27.584Z,4.35
2019-02-23T04:42:27.598Z,4.37
2019-02-23T04:43:27.613Z,4.44
2019-02-23T04:44:27.626Z,4.41
2019-02-23T04:45:27.724Z,4.20
2019-02-23T04:46:27.656Z,4.34
2019-02-23T04:47:27.672Z,4.30
2019-02-23T04:48:27.689Z,4.22
2019-02-23T04:49:27.701Z,4.17
2019-02-23T04:50:27.712Z,4.26
2019-02-23T04:51:27.729Z,4.17
2019-02-23T04:52:27.740Z,4.23
2019-02-23T04:53:27.754Z,4.23
2019-02-23T04:54:27.769Z,4.19
2019-02-23T04:55:27.782Z,4.22
2019-02-23T04:56:27.801Z,4.19
2019-02-23T04:57:27.815Z,4.22
2019-02-23T04:58:27.828Z,4.08
2019-02-23T04:59:27.890Z,4.10
2019-02-23T05:00:27.859Z,4.17
2019-02-23T05:01:27.865Z,4.13
2019-02-23T05:02:27.879Z,4.08
2019-02-23T05:03:27.902Z,4.05
2019-02-23T05:04:27.908Z,4.12
2019-02-23T05:05:27.931Z,4.14
2019-02-23T05:06:27.938Z,4.19
2019-02-23T05:07:27.952Z,4.02
2019-02-23T05:08:27.963Z,4.10
2019-02-23T05:09:27.977Z,4.04
2019-02-23T05:10:27.994Z,4.12
2019-02-23T05:11:28.014Z,3.96
2019-02-23T05:12:28.020Z,4.06
2019-02-23T05:13:28.036Z,4.02
2019-02-23T05:14:28.051Z,3.95
2019-02-23T05:15:28.079Z,4.01
2019-02-23T05:16:28.078Z,3.92
2019-02-23T05:17:28.093Z,3.95
2019-02-23T05:18:28.112Z,4.01
2019-02-23T05:19:28.732Z,3.88
2019-02-23T05:20:28.147Z,3.98
2019-02-23T05:21:28.149Z,3.94
2019-02-23T05:22:28.169Z,3.98
2019-02-23T05:23:28.182Z,3.95
2019-02-23T05:24:28.188Z,3.98
2019-02-23T05:25:28.205Z,3.81
2019-02-23T05:26:28.220Z,3.84
2019-02-23T05:27:28.254Z,3.87
2019-02-23T05:28:28.245Z,3.83
2019-02-23T05:29:28.261Z,3.91
2019-02-23T05:30:28.272Z,3.83
2019-02-23T05:31:28.285Z,3.78
2019-02-23T05:32:28.305Z,3.76
2019-02-23T05:33:28.317Z,3.73
2019-02-23T05:34:28.329Z,3.81
2019-02-23T05:35:28.341Z,3.74
2019-02-23T05:36:28.365Z,3.65
2019-02-23T05:37:28.368Z,3.76
2019-02-23T05:38:28.383Z,3.76
2019-02-23T05:39:28.407Z,3.65
2019-02-23T05:40:28.408Z,3.66
2019-02-23T05:41:28.422Z,3.73
2019-02-23T05:42:28.440Z,3.69
2019-02-23T05:43:28.469Z,3.73
2019-02-23T05:44:28.466Z,3.74
2019-02-23T05:45:28.484Z,3.73
2019-02-23T05:46:28.500Z,3.65
2019-02-23T05:47:28.514Z,3.63
2019-02-23T05:48:28.524Z,3.68
2019-02-23T05:49:28.531Z,3.68
2019-02-23T05:50:28.554Z,3.58
2019-02-23T05:51:38.404Z,3.56
2019-02-23T05:52:28.577Z,3.58
2019-02-23T05:53:28.587Z,3.58
2019-02-23T05:54:28.611Z,3.59
2019-02-23T05:55:28.617Z,3.55
2019-02-23T05:56:28.628Z,3.48
2019-02-23T05:57:28.650Z,3.47
2019-02-23T05:58:28.659Z,3.48
2019-02-23T05:59:28.679Z,3.42
2019-02-23T06:00:28.686Z,3.42
2019-02-23T06:01:28.697Z,3.37
2019-02-23T06:02:28.711Z,3.32
2019-02-23T06:03:28.727Z,3.37
2019-02-23T06:04:28.743Z,3.44
2019-02-23T06:05:28.754Z,3.44
2019-02-23T06:06:28.771Z,3.50
2019-02-23T06:07:28.783Z,3.40
2019-02-23T06:08:28.798Z,3.44
2019-02-23T06:09:28.810Z,3.32
2019-02-23T06:10:28.823Z,3.34
2019-02-23T06:11:28.837Z,3.37
2019-02-23T06:12:28.870Z,3.34
2019-02-23T06:13:28.863Z,3.31
2019-02-23T06:14:28.887Z,3.22
2019-02-23T06:15:28.889Z,3.29
2019-02-23T06:16:28.910Z,3.31
2019-02-23T06:17:28.918Z,3.37
2019-02-23T06:18:28.933Z,3.31
2019-02-23T06:19:28.946Z,3.31
2019-02-23T06:20:28.967Z,3.36
2019-02-23T06:21:28.974Z,3.32
2019-02-23T06:22:28.987Z,3.34
2019-02-23T06:23:29.006Z,3.32
2019-02-23T06:24:29.014Z,3.16
2019-02-23T06:25:29.026Z,3.32
2019-02-23T06:26:29.046Z,3.32
2019-02-23T06:27:29.066Z,3.40
2019-02-23T06:28:29.072Z,3.34
2019-02-23T06:29:29.082Z,3.16
2019-02-23T06:30:29.096Z,3.26
2019-02-23T06:31:29.113Z,3.19
2019-02-23T06:32:29.123Z,3.19
2019-02-23T06:33:29.149Z,3.26
2019-02-23T06:34:29.151Z,3.19
2019-02-23T06:35:29.163Z,3.19
2019-02-23T06:36:29.177Z,3.22
2019-02-23T06:37:29.193Z,3.18
2019-02-23T06:38:29.204Z,3.13
2019-02-23T06:39:29.221Z,3.13
2019-02-23T06:40:29.233Z,3.11
2019-02-23T06:41:29.246Z,3.18
2019-02-23T06:42:29.261Z,3.10
2019-02-23T06:43:29.274Z,3.07
2019-02-23T06:44:29.287Z,3.08
2019-02-23T06:45:29.298Z,2.92
2019-02-23T06:46:29.317Z,2.98
2019-02-23T06:47:29.325Z,2.97
2019-02-23T06:48:29.339Z,3.08
2019-02-23T06:49:29.353Z,2.98
2019-02-23T06:50:29.369Z,3.01
2019-02-23T06:51:29.381Z,3.11
2019-02-23T06:52:29.397Z,3.05
2019-02-23T06:53:29.407Z,3.07
2019-02-23T06:54:29.425Z,3.13
2019-02-23T06:55:29.437Z,3.05
2019-02-23T06:56:29.450Z,3.16
2019-02-23T06:57:29.464Z,3.11
2019-02-23T06:58:29.477Z,3.13
2019-02-23T06:59:29.498Z,3.11
2019-02-23T07:00:29.505Z,3.13
2019-02-23T07:01:29.516Z,3.16
2019-02-23T07:02:29.535Z,3.10
2019-02-23T07:03:29.547Z,3.16
2019-02-23T07:04:29.556Z,3.23
2019-02-23T07:05:29.571Z,3.14
2019-02-23T07:06:29.593Z,3.18
2019-02-23T07:07:29.611Z,3.11
2019-02-23T07:08:29.613Z,3.16
2019-02-23T07:09:29.637Z,3.14
2019-02-23T07:10:29.640Z,3.13
2019-02-23T07:11:29.659Z,3.14
2019-02-23T07:12:29.678Z,3.07
2019-02-23T07:13:29.684Z,3.10
2019-02-23T07:14:29.698Z,3.13
2019-02-23T07:15:29.707Z,3.11
2019-02-23T07:16:29.728Z,3.04
2019-02-23T07:17:29.736Z,3.11
2019-02-23T07:18:29.750Z,3.10
2019-02-23T07:19:29.762Z,3.14
2019-02-23T07:20:29.781Z,3.14
2019-02-23T07:21:29.790Z,3.14
2019-02-23T07:22:29.804Z,3.14
2019-02-23T07:23:29.824Z,3.14
2019-02-23T07:24:29.829Z,3.18
2019-02-23T07:25:29.845Z,3.13
2019-02-23T07:26:29.858Z,3.21
2019-02-23T07:27:29.871Z,3.19
2019-02-23T07:28:29.883Z,3.08
2019-02-23T07:29:29.898Z,3.08
2019-02-23T07:30:29.911Z,3.11
2019-02-23T07:31:29.927Z,3.16
2019-02-23T07:32:29.941Z,3.14
2019-02-23T07:33:33.116Z,3.05
2019-02-23T07:34:29.968Z,3.07
2019-02-23T07:35:29.979Z,3.08
2019-02-23T07:36:29.996Z,3.13
2019-02-23T07:37:30.014Z,3.14
2019-02-23T07:38:30.020Z,3.07
2019-02-23T07:39:30.037Z,3.16
2019-02-23T07:40:30.053Z,3.03
2019-02-23T07:41:30.059Z,3.19
2019-02-23T07:42:30.075Z,3.16
2019-02-23T07:43:30.089Z,3.21
2019-02-23T07:44:30.101Z,3.19
2019-02-23T07:45:30.118Z,3.19
2019-02-23T07:46:30.131Z,3.14
2019-02-23T07:47:30.145Z,3.16
2019-02-23T07:48:30.232Z,3.25
2019-02-23T07:49:30.172Z,3.19
2019-02-23T07:50:30.188Z,3.18
2019-02-23T07:51:30.200Z,3.22
2019-02-23T07:52:30.219Z,3.19
2019-02-23T07:53:30.223Z,3.14
2019-02-23T07:54:30.245Z,3.32
2019-02-23T07:55:30.260Z,3.32
2019-02-23T07:56:30.267Z,3.44
2019-02-23T07:57:30.283Z,3.42
2019-02-23T07:58:30.295Z,3.47
2019-02-23T07:59:30.318Z,3.48
2019-02-23T08:00:30.327Z,3.56
2019-02-23T08:01:30.337Z,3.47
2019-02-23T08:02:30.348Z,3.47
2019-02-23T08:03:30.368Z,3.51
2019-02-23T08:04:30.376Z,3.44
2019-02-23T08:05:30.390Z,3.50
2019-02-23T08:06:30.406Z,3.48
2019-02-23T08:07:30.422Z,3.58
2019-02-23T08:08:30.433Z,3.56
2019-02-23T08:09:30.448Z,3.55
2019-02-23T08:10:30.461Z,3.56
2019-02-23T08:11:30.477Z,3.55
2019-02-23T08:12:30.486Z,3.58
2019-02-23T08:13:30.500Z,3.68
2019-02-23T08:14:30.518Z,3.66
2019-02-23T08:15:30.533Z,3.68
2019-02-23T08:16:30.543Z,3.70
2019-02-23T08:17:30.562Z,3.66
2019-02-23T08:18:30.570Z,3.77
2019-02-23T08:19:30.585Z,3.77
2019-02-23T08:20:30.600Z,3.83
2019-02-23T08:21:30.621Z,3.94
2019-02-23T08:22:37.297Z,3.94
2019-02-23T08:23:30.648Z,3.94
2019-02-23T08:24:30.654Z,3.99
2019-02-23T08:25:30.670Z,3.96
2019-02-23T08:26:30.684Z,4.12
2019-02-23T08:27:30.699Z,4.08
2019-02-23T08:28:30.713Z,4.06
2019-02-23T08:29:30.727Z,3.99
2019-02-23T08:30:30.744Z,3.96
2019-02-23T08:31:30.754Z,3.98
2019-02-23T08:32:30.767Z,4.05
2019-02-23T08:33:30.785Z,4.01
2019-02-23T08:34:30.796Z,4.08
2019-02-23T08:35:30.809Z,4.04
2019-02-23T08:36:30.831Z,4.05
2019-02-23T08:37:30.842Z,4.13
2019-02-23T08:38:30.854Z,4.02
2019-02-23T08:39:30.866Z,4.16
2019-02-23T08:40:30.882Z,4.08
2019-02-23T08:41:30.894Z,4.23
2019-02-23T08:42:30.908Z,4.24
2019-02-23T08:43:30.929Z,4.34
2019-02-23T08:44:30.938Z,4.48
2019-02-23T08:45:30.951Z,4.42
2019-02-23T08:46:30.974Z,4.26
2019-02-23T08:47:30.979Z,4.42
2019-02-23T08:48:33.340Z,4.50
2019-02-23T08:49:31.011Z,4.48
2019-02-23T08:50:31.022Z,4.58
2019-02-23T08:51:31.035Z,4.62
2019-02-23T08:52:31.049Z,4.60
2019-02-23T08:53:31.067Z,4.70
2019-02-23T08:54:31.079Z,4.70
2019-02-23T08:55:31.095Z,4.62
2019-02-23T08:56:31.167Z,4.84
2019-02-23T08:57:31.124Z,4.66
2019-02-23T08:58:31.135Z,4.80
2019-02-23T08:59:31.151Z,4.80
2019-02-23T09:00:31.166Z,4.78
2019-02-23T09:01:31.181Z,4.70
2019-02-23T09:02:31.196Z,4.78
2019-02-23T09:03:31.208Z,4.97
2019-02-23T09:04:31.225Z,4.93
2019-02-23T09:05:31.238Z,4.97
2019-02-23T09:06:31.253Z,5.07
2019-02-23T09:07:31.266Z,5.04
2019-02-23T09:08:31.282Z,5.11
2019-02-23T09:09:31.297Z,5.10
2019-02-23T09:10:31.309Z,5.21
2019-02-23T09:11:31.326Z,5.15
2019-02-23T09:12:31.341Z,5.43
2019-02-23T09:13:31.353Z,5.38
2019-02-23T09:14:31.368Z,5.47
2019-02-23T09:15:31.387Z,5.48
2019-02-23T09:16:31.399Z,5.56
2019-02-23T09:17:31.410Z,5.54
2019-02-23T09:18:31.427Z,5.72
2019-02-23T09:19:31.444Z,5.80
2019-02-23T09:20:31.458Z,5.82
2019-02-23T09:21:31.470Z,5.72
2019-02-23T09:22:31.501Z,5.68
2019-02-23T09:23:31.504Z,5.89
2019-02-23T09:24:31.516Z,5.87
2019-02-23T09:25:31.530Z,6.01
2019-02-23T09:26:31.553Z,6.07
2019-02-23T09:27:31.563Z,5.99
2019-02-23T09:28:31.577Z,6.08
2019-02-23T09:29:31.588Z,6.08
2019-02-23T09:30:31.605Z,6.22
2019-02-23T09:31:31.623Z,6.24
2019-02-23T09:32:31.637Z,6.27
2019-02-23T09:33:31.653Z,6.35
2019-02-23T09:34:31.681Z,6.39
2019-02-23T09:35:31.681Z,6.46
2019-02-23T09:36:31.698Z,6.48
2019-02-23T09:37:31.716Z,6.59
2019-02-23T09:38:31.729Z,6.60
2019-02-23T09:39:31.758Z,6.77
2019-02-23T09:40:31.759Z,6.70
2019-02-23T09:41:31.773Z,6.74
2019-02-23T09:42:31.789Z,6.72
2019-02-23T09:43:31.806Z,6.66
2019-02-23T09:44:31.820Z,6.67
2019-02-23T09:45:31.834Z,6.78
2019-02-23T09:46:31.857Z,6.74
2019-02-23T09:47:31.866Z,6.79
2019-02-23T09:48:31.882Z,6.75
2019-02-23T09:49:31.907Z,6.82
2019-02-23T09:50:31.915Z,6.84
2019-02-23T09:51:31.930Z,6.96
2019-02-23T09:52:31.943Z,7.02
2019-02-23T09:53:31.959Z,7.07
2019-02-23T09:54:31.977Z,7.07
2019-02-23T09:55:31.991Z,7.20
2019-02-23T09:56:32.011Z,7.23
2019-02-23T09:57:32.029Z,7.31
2019-02-23T09:58:32.042Z,7.38
2019-02-23T09:59:32.056Z,7.43
2019-02-23T10:00:32.071Z,7.38
2019-02-23T10:01:32.085Z,7.47
2019-02-23T10:02:32.102Z,7.23
2019-02-23T10:03:32.124Z,7.18
2019-02-23T10:04:32.137Z,7.29
2019-02-23T10:05:32.152Z,7.38
2019-02-23T10:06:32.176Z,7.38
2019-02-23T10:07:32.191Z,7.47
2019-02-23T10:08:32.199Z,7.40
2019-02-23T10:09:32.215Z,7.56
2019-02-23T10:10:32.238Z,7.54
2019-02-23T10:11:32.246Z,7.73
2019-02-23T10:12:32.264Z,7.79
2019-02-23T10:13:32.277Z,7.91
2019-02-23T10:14:32.299Z,8.09
2019-02-23T10:15:32.312Z,8.26
2019-02-23T10:16:32.328Z,8.48
2019-02-23T10:17:32.344Z,8.51
2019-02-23T10:18:32.361Z,8.49
2019-02-23T10:19:32.378Z,8.45
2019-02-23T10:20:32.392Z,8.36
2019-02-23T10:21:32.411Z,8.19
2019-02-23T10:22:32.425Z,8.19
2019-02-23T10:23:32.445Z,8.13
2019-02-23T10:24:32.460Z,8.20
2019-02-23T10:25:32.482Z,8.16
2019-02-23T10:26:32.492Z,8.20
2019-02-23T10:27:32.511Z,8.31
2019-02-23T10:28:32.525Z,8.36
2019-02-23T10:29:32.544Z,8.37
2019-02-23T10:30:32.565Z,8.53
2019-02-23T10:31:32.579Z,8.56
2019-02-23T10:32:32.594Z,8.56
2019-02-23T10:33:32.608Z,8.55
2019-02-23T10:34:32.632Z,8.52
2019-02-23T10:35:32.649Z,8.45
2019-02-23T10:36:32.668Z,8.44
2019-02-23T10:37:32.685Z,8.20
2019-02-23T10:38:32.693Z,8.30
2019-02-23T10:39:32.710Z,8.33
2019-02-23T10:40:32.728Z,8.30
2019-02-23T10:41:32.743Z,8.23
2019-02-23T10:42:32.762Z,8.41
2019-02-23T10:43:32.779Z,8.31
2019-02-23T10:44:32.802Z,8.36
2019-02-23T10:45:32.813Z,8.34
2019-02-23T10:46:32.832Z,8.26
2019-02-23T10:47:32.874Z,8.24
2019-02-23T10:48:32.865Z,8.42
2019-02-23T10:49:32.877Z,8.37
2019-02-23T10:50:32.896Z,8.31
2019-02-23T10:51:32.919Z,8.36
2019-02-23T10:52:32.927Z,8.37
2019-02-23T10:53:33.248Z,8.24
2019-02-23T10:54:32.973Z,8.27
2019-02-23T10:55:32.977Z,8.19
2019-02-23T10:56:33.001Z,8.34
2019-02-23T10:57:33.012Z,8.34
2019-02-23T10:58:33.030Z,8.37
2019-02-23T10:59:33.046Z,8.36
2019-02-23T11:00:33.068Z,8.38
2019-02-23T11:01:33.081Z,8.37
2019-02-23T11:02:33.145Z,8.45
2019-02-23T11:03:33.111Z,8.46
2019-02-23T11:04:33.249Z,8.48
2019-02-23T11:05:33.142Z,8.49
2019-02-23T11:06:33.162Z,8.53
2019-02-23T11:07:33.175Z,8.53
2019-02-23T11:08:33.193Z,8.53
2019-02-23T11:09:33.212Z,8.51
2019-02-23T11:10:33.228Z,8.55
2019-02-23T11:11:33.261Z,8.60
2019-02-23T11:12:33.262Z,8.61
2019-02-23T11:13:33.276Z,8.61
2019-02-23T11:14:33.293Z,8.63
2019-02-23T11:15:33.310Z,8.71
2019-02-23T11:16:33.325Z,8.70
2019-02-23T11:17:33.344Z,8.70
2019-02-23T11:18:33.362Z,8.79
2019-02-23T11:19:33.383Z,8.79
2019-02-23T11:20:33.393Z,8.94
2019-02-23T11:21:33.412Z,8.87
2019-02-23T11:22:33.429Z,8.85
2019-02-23T11:23:43.465Z,8.71
2019-02-23T11:24:33.462Z,8.78
2019-02-23T11:25:33.479Z,8.67
2019-02-23T11:26:33.494Z,8.79
2019-02-23T11:27:33.511Z,8.89
2019-02-23T11:28:33.527Z,8.97
2019-02-23T11:29:33.553Z,9.02
2019-02-23T11:30:33.564Z,9.08
2019-02-23T11:31:33.587Z,9.06
2019-02-23T11:32:33.597Z,9.16
2019-02-23T11:33:33.613Z,9.13
2019-02-23T11:34:33.631Z,9.10
2019-02-23T11:35:33.646Z,9.04
2019-02-23T11:36:33.669Z,9.06
2019-02-23T11:37:33.683Z,9.21
2019-02-23T11:38:33.697Z,9.25
2019-02-23T11:39:33.716Z,9.29
2019-02-23T11:40:33.735Z,9.29
2019-02-23T11:41:33.748Z,9.26
2019-02-23T11:42:33.765Z,9.36
2019-02-23T11:43:33.783Z,9.39
2019-02-23T11:44:33.801Z,9.32
2019-02-23T11:45:33.816Z,9.34
2019-02-23T11:46:33.834Z,9.40
2019-02-23T11:47:33.852Z,9.39
2019-02-23T11:48:33.876Z,9.39
2019-02-23T11:49:33.887Z,9.29
2019-02-23T11:50:33.907Z,9.28
2019-02-23T11:51:33.918Z,9.39
2019-02-23T11:52:33.938Z,9.43
2019-02-23T11:53:33.953Z,9.36
2019-02-23T11:54:34.027Z,9.32
2019-02-23T11:55:33.991Z,9.37
2019-02-23T11:56:34.014Z,9.39
2019-02-23T11:57:34.022Z,9.36
2019-02-23T11:58:34.042Z,9.37
2019-02-23T11:59:34.062Z,9.37
2019-02-23T12:00:34.077Z,9.31
2019-02-23T12:01:34.091Z,9.37
2019-02-23T12:02:34.110Z,9.46
2019-02-23T12:03:34.128Z,9.44
2019-02-23T12:04:34.141Z,9.41
2019-02-23T12:05:34.159Z,9.37
2019-02-23T12:06:34.179Z,9.41
2019-02-23T12:07:34.195Z,9.41
2019-02-23T12:08:34.210Z,9.59
2019-02-23T12:09:34.233Z,9.56
2019-02-23T12:10:34.245Z,9.58
2019-02-23T12:11:34.273Z,9.51
2019-02-23T12:12:34.282Z,9.54
2019-02-23T12:13:34.296Z,9.55
2019-02-23T12:14:34.319Z,9.61
2019-02-23T12:15:34.335Z,9.55
2019-02-23T12:16:34.348Z,9.74
2019-02-23T12:17:34.366Z,9.73
2019-02-23T12:18:34.386Z,9.83
2019-02-23T12:19:34.409Z,9.87
2019-02-23T12:20:34.420Z,9.84
2019-02-23T12:21:34.443Z,9.86
2019-02-23T12:22:34.460Z,9.98
2019-02-23T12:23:34.479Z,9.86
2019-02-23T12:24:34.485Z,9.99
2019-02-23T12:25:34.506Z,9.97
2019-02-23T12:26:34.522Z,10.01
2019-02-23T12:27:34.549Z,9.94
2019-02-23T12:28:34.556Z,9.95
2019-02-23T12:29:34.573Z,9.95
2019-02-23T12:30:34.599Z,10.10
2019-02-23T12:31:34.613Z,10.09
2019-02-23T12:32:34.631Z,10.17
2019-02-23T12:33:34.642Z,10.16
2019-02-23T12:34:34.662Z,10.13
2019-02-23T12:35:34.682Z,10.22
2019-02-23T12:36:34.699Z,10.25
2019-02-23T12:37:34.712Z,10.23
2019-02-23T12:38:34.731Z,10.19
2019-02-23T12:39:34.750Z,10.34
2019-02-23T12:40:34.767Z,10.37
2019-02-23T12:41:34.785Z,10.38
2019-02-23T12:42:34.802Z,10.40
2019-02-23T12:43:34.820Z,10.38
2019-02-23T12:44:34.836Z,10.31
2019-02-23T12:45:34.852Z,10.41
2019-02-23T12:46:34.876Z,10.33
2019-02-23T12:47:34.890Z,10.37
2019-02-23T12:48:34.914Z,10.33
2019-02-23T12:49:34.928Z,10.44
2019-02-23T12:50:34.946Z,10.38
2019-02-23T12:51:34.967Z,10.41
2019-02-23T12:52:34.978Z,10.37
2019-02-23T12:53:34.996Z,10.35
2019-02-23T12:54:35.020Z,10.33
2019-02-23T12:55:35.029Z,10.40
2019-02-23T12:56:35.046Z,10.42
2019-02-23T12:57:35.064Z,10.53
2019-02-23T12:58:35.084Z,10.41
2019-02-23T12:59:35.103Z,10.20
2019-02-23T13:00:35.117Z,10.19
2019-02-23T13:01:35.137Z,10.19
2019-02-23T13:02:35.156Z,10.23
2019-02-23T13:03:35.173Z,10.09
2019-02-23T13:04:35.251Z,10.07
2019-02-23T13:05:35.206Z,10.15
2019-02-23T13:06:35.233Z,9.97
2019-02-23T13:07:35.244Z,9.92
2019-02-23T13:08:35.261Z,10.15
2019-02-23T13:09:35.277Z,10.20
2019-02-23T13:10:35.295Z,10.30
2019-02-23T13:11:35.315Z,10.40
2019-02-23T13:12:35.329Z,10.46
2019-02-23T13:13:35.349Z,10.41
2019-02-23T13:14:35.371Z,10.44
2019-02-23T13:15:35.386Z,10.44
2019-02-23T13:16:35.403Z,10.42